sensor_id;sensor_type;location;lat;lon;timestamp;P1;durP1;ratioP1;P2;durP2;ratioP2
28714;SDS011;15886;49.170;14.572;2022-09-16T00:01:17;4.95;;;2.85;;
28714;SDS011;15886;49.170;14.572;2022-09-16T00:16:36;3.35;;;2.30;;
28714;SDS011;15886;49.170;14.572;2022-09-16T00:24:35;6.57;;;2.78;;
28714;SDS011;15886;49.170;14.572;2022-09-16T01:55:27;4.53;;;2.45;;
28714;SDS011;15886;49.170;14.572;2022-09-16T02:02:05;6.57;;;2.42;;
28714;SDS011;15886;49.170;14.572;2022-09-16T02:04:56;10.93;;;2.50;;
28714;SDS011;15886;49.170;14.572;2022-09-16T02:07:39;9.85;;;2.47;;
28714;SDS011;15886;49.170;14.572;2022-09-16T02:10:49;5.00;;;2.05;;
28714;SDS011;15886;49.170;14.572;2022-09-16T02:17:06;5.55;;;2.38;;
28714;SDS011;15886;49.170;14.572;2022-09-16T02:30:46;2.58;;;2.20;;
28714;SDS011;15886;49.170;14.572;2022-09-16T02:33:22;11.55;;;2.00;;
28714;SDS011;15886;49.170;14.572;2022-09-16T02:35:59;3.25;;;2.28;;
28714;SDS011;15886;49.170;14.572;2022-09-16T02:38:34;5.13;;;2.30;;
28714;SDS011;15886;49.170;14.572;2022-09-16T02:41:12;8.10;;;2.88;;
28714;SDS011;15886;49.170;14.572;2022-09-16T02:43:44;6.85;;;2.65;;
28714;SDS011;15886;49.170;14.572;2022-09-16T02:46:18;4.00;;;2.53;;
28714;SDS011;15886;49.170;14.572;2022-09-16T02:51:56;7.25;;;2.50;;
28714;SDS011;15886;49.170;14.572;2022-09-16T02:54:38;10.15;;;2.85;;
28714;SDS011;15886;49.170;14.572;2022-09-16T02:57:13;8.40;;;2.78;;
28714;SDS011;15886;49.170;14.572;2022-09-16T02:59:50;3.45;;;2.30;;
28714;SDS011;15886;49.170;14.572;2022-09-16T03:02:53;2.75;;;2.40;;
28714;SDS011;15886;49.170;14.572;2022-09-16T03:05:59;11.07;;;2.63;;
28714;SDS011;15886;49.170;14.572;2022-09-16T03:13:38;8.95;;;2.53;;
28714;SDS011;15886;49.170;14.572;2022-09-16T03:24:35;9.00;;;2.63;;
28714;SDS011;15886;49.170;14.572;2022-09-16T03:27:30;4.03;;;2.67;;
28714;SDS011;15886;49.170;14.572;2022-09-16T03:34:08;3.85;;;2.78;;
28714;SDS011;15886;49.170;14.572;2022-09-16T03:37:14;6.35;;;2.80;;
28714;SDS011;15886;49.170;14.572;2022-09-16T03:39:54;7.20;;;2.90;;
28714;SDS011;15886;49.170;14.572;2022-09-16T03:42:31;7.80;;;3.05;;
28714;SDS011;15886;49.170;14.572;2022-09-16T03:45:15;6.43;;;2.97;;
28714;SDS011;15886;49.170;14.572;2022-09-16T03:47:51;5.07;;;2.70;;
28714;SDS011;15886;49.170;14.572;2022-09-16T03:50:40;5.32;;;2.70;;
28714;SDS011;15886;49.170;14.572;2022-09-16T03:56:20;4.35;;;2.70;;
28714;SDS011;15886;49.170;14.572;2022-09-16T03:59:46;9.07;;;2.97;;
28714;SDS011;15886;49.170;14.572;2022-09-16T04:03:18;5.38;;;2.60;;
28714;SDS011;15886;49.170;14.572;2022-09-16T04:13:05;7.70;;;2.75;;
28714;SDS011;15886;49.170;14.572;2022-09-16T04:26:25;3.75;;;2.70;;
28714;SDS011;15886;49.170;14.572;2022-09-16T04:29:12;3.47;;;2.90;;
28714;SDS011;15886;49.170;14.572;2022-09-16T04:31:40;7.32;;;3.42;;
28714;SDS011;15886;49.170;14.572;2022-09-16T04:34:08;6.38;;;3.00;;
28714;SDS011;15886;49.170;14.572;2022-09-16T04:36:39;7.35;;;3.03;;
28714;SDS011;15886;49.170;14.572;2022-09-16T04:39:08;6.07;;;3.53;;
28714;SDS011;15886;49.170;14.572;2022-09-16T04:41:40;6.30;;;2.95;;
28714;SDS011;15886;49.170;14.572;2022-09-16T04:44:09;5.18;;;2.70;;
28714;SDS011;15886;49.170;14.572;2022-09-16T04:46:42;7.55;;;3.15;;
28714;SDS011;15886;49.170;14.572;2022-09-16T04:49:11;7.57;;;2.80;;
28714;SDS011;15886;49.170;14.572;2022-09-16T04:51:40;6.07;;;3.10;;
28714;SDS011;15886;49.170;14.572;2022-09-16T04:54:09;8.73;;;3.17;;
28714;SDS011;15886;49.170;14.572;2022-09-16T04:56:39;6.35;;;2.95;;
28714;SDS011;15886;49.170;14.572;2022-09-16T04:59:08;4.82;;;3.38;;
28714;SDS011;15886;49.170;14.572;2022-09-16T05:04:32;5.22;;;3.30;;
28714;SDS011;15886;49.170;14.572;2022-09-16T05:16:32;4.95;;;4.15;;
28714;SDS011;15886;49.170;14.572;2022-09-16T05:45:08;5.28;;;3.80;;
28714;SDS011;15886;49.170;14.572;2022-09-16T07:20:44;5.13;;;4.38;;
28714;SDS011;15886;49.170;14.572;2022-09-16T07:24:08;10.10;;;4.35;;
28714;SDS011;15886;49.170;14.572;2022-09-16T07:31:37;7.68;;;4.88;;
28714;SDS011;15886;49.170;14.572;2022-09-16T07:41:22;6.13;;;3.65;;
28714;SDS011;15886;49.170;14.572;2022-09-16T07:45:32;6.55;;;3.80;;
28714;SDS011;15886;49.170;14.572;2022-09-16T07:53:13;6.97;;;3.75;;
28714;SDS011;15886;49.170;14.572;2022-09-16T08:18:07;8.15;;;5.22;;
28714;SDS011;15886;49.170;14.572;2022-09-16T08:33:33;6.75;;;5.03;;
28714;SDS011;15886;49.170;14.572;2022-09-16T08:42:30;6.80;;;4.78;;
28714;SDS011;15886;49.170;14.572;2022-09-16T08:45:34;9.32;;;5.70;;
28714;SDS011;15886;49.170;14.572;2022-09-16T08:52:56;7.57;;;4.57;;
28714;SDS011;15886;49.170;14.572;2022-09-16T08:56:40;12.98;;;5.40;;
28714;SDS011;15886;49.170;14.572;2022-09-16T09:17:10;7.28;;;3.00;;
28714;SDS011;15886;49.170;14.572;2022-09-16T09:27:39;6.57;;;4.35;;
28714;SDS011;15886;49.170;14.572;2022-09-16T09:48:21;4.20;;;2.63;;
28714;SDS011;15886;49.170;14.572;2022-09-16T10:17:23;6.60;;;2.83;;
28714;SDS011;15886;49.170;14.572;2022-09-16T10:52:20;3.83;;;2.10;;
28714;SDS011;15886;49.170;14.572;2022-09-16T10:56:49;4.75;;;2.20;;
28714;SDS011;15886;49.170;14.572;2022-09-16T11:20:58;7.45;;;2.20;;
28714;SDS011;15886;49.170;14.572;2022-09-16T12:18:39;3.00;;;2.03;;
28714;SDS011;15886;49.170;14.572;2022-09-16T12:22:17;6.63;;;1.92;;
28714;SDS011;15886;49.170;14.572;2022-09-16T12:26:12;4.05;;;2.20;;
28714;SDS011;15886;49.170;14.572;2022-09-16T12:33:38;4.07;;;2.22;;
28714;SDS011;15886;49.170;14.572;2022-09-16T12:44:07;2.55;;;2.00;;
28714;SDS011;15886;49.170;14.572;2022-09-16T13:05:33;5.97;;;1.80;;
28714;SDS011;15886;49.170;14.572;2022-09-16T13:08:23;3.00;;;2.08;;
28714;SDS011;15886;49.170;14.572;2022-09-16T13:10:59;3.00;;;1.70;;
28714;SDS011;15886;49.170;14.572;2022-09-16T13:14:35;4.43;;;1.75;;
28714;SDS011;15886;49.170;14.572;2022-09-16T13:18:23;3.72;;;1.70;;
28714;SDS011;15886;49.170;14.572;2022-09-16T13:21:42;2.80;;;2.08;;
28714;SDS011;15886;49.170;14.572;2022-09-16T13:28:22;3.90;;;1.85;;
28714;SDS011;15886;49.170;14.572;2022-09-16T13:33:44;5.40;;;2.33;;
28714;SDS011;15886;49.170;14.572;2022-09-16T13:36:34;3.55;;;1.60;;
28714;SDS011;15886;49.170;14.572;2022-09-16T13:39:37;4.75;;;2.10;;
28714;SDS011;15886;49.170;14.572;2022-09-16T13:42:37;5.25;;;2.00;;
28714;SDS011;15886;49.170;14.572;2022-09-16T13:48:15;2.65;;;1.65;;
28714;SDS011;15886;49.170;14.572;2022-09-16T13:51:05;3.15;;;1.75;;
28714;SDS011;15886;49.170;14.572;2022-09-16T13:53:42;3.22;;;1.92;;
28714;SDS011;15886;49.170;14.572;2022-09-16T14:05:11;3.67;;;1.92;;
28714;SDS011;15886;49.170;14.572;2022-09-16T14:13:55;4.28;;;2.28;;
28714;SDS011;15886;49.170;14.572;2022-09-16T14:16:38;2.97;;;2.53;;
28714;SDS011;15886;49.170;14.572;2022-09-16T14:19:25;2.83;;;2.00;;
28714;SDS011;15886;49.170;14.572;2022-09-16T14:24:46;4.95;;;2.60;;
28714;SDS011;15886;49.170;14.572;2022-09-16T14:27:17;6.18;;;2.15;;
28714;SDS011;15886;49.170;14.572;2022-09-16T14:30:32;3.63;;;2.17;;
28714;SDS011;15886;49.170;14.572;2022-09-16T14:32:43;4.25;;;1.95;;
28714;SDS011;15886;49.170;14.572;2022-09-16T14:35:18;2.65;;;1.80;;
28714;SDS011;15886;49.170;14.572;2022-09-16T14:37:50;3.25;;;1.67;;
28714;SDS011;15886;49.170;14.572;2022-09-16T14:40:23;2.17;;;1.63;;
28714;SDS011;15886;49.170;14.572;2022-09-16T14:45:24;4.65;;;2.00;;
28714;SDS011;15886;49.170;14.572;2022-09-16T14:47:53;9.38;;;1.92;;
28714;SDS011;15886;49.170;14.572;2022-09-16T14:50:27;4.80;;;1.83;;
28714;SDS011;15886;49.170;14.572;2022-09-16T14:53:02;3.03;;;1.73;;
28714;SDS011;15886;49.170;14.572;2022-09-16T14:55:33;8.20;;;2.05;;
28714;SDS011;15886;49.170;14.572;2022-09-16T14:58:23;6.25;;;1.70;;
28714;SDS011;15886;49.170;14.572;2022-09-16T15:00:57;3.80;;;1.83;;
28714;SDS011;15886;49.170;14.572;2022-09-16T15:06:24;3.08;;;2.25;;
28714;SDS011;15886;49.170;14.572;2022-09-16T15:09:04;3.15;;;2.00;;
28714;SDS011;15886;49.170;14.572;2022-09-16T15:11:45;5.35;;;1.98;;
28714;SDS011;15886;49.170;14.572;2022-09-16T15:14:23;4.05;;;1.73;;
28714;SDS011;15886;49.170;14.572;2022-09-16T15:16:57;2.80;;;1.40;;
28714;SDS011;15886;49.170;14.572;2022-09-16T15:19:31;4.35;;;1.77;;
28714;SDS011;15886;49.170;14.572;2022-09-16T15:22:02;3.45;;;1.67;;
28714;SDS011;15886;49.170;14.572;2022-09-16T15:24:33;4.07;;;1.90;;
28714;SDS011;15886;49.170;14.572;2022-09-16T15:27:02;2.70;;;1.50;;
28714;SDS011;15886;49.170;14.572;2022-09-16T15:29:31;7.60;;;1.80;;
28714;SDS011;15886;49.170;14.572;2022-09-16T15:32:05;6.45;;;2.15;;
28714;SDS011;15886;49.170;14.572;2022-09-16T15:34:45;5.38;;;1.92;;
28714;SDS011;15886;49.170;14.572;2022-09-16T15:37:30;2.85;;;1.50;;
28714;SDS011;15886;49.170;14.572;2022-09-16T15:49:54;1.75;;;1.58;;
28714;SDS011;15886;49.170;14.572;2022-09-16T15:52:47;2.67;;;1.75;;
28714;SDS011;15886;49.170;14.572;2022-09-16T15:55:43;3.75;;;2.03;;
28714;SDS011;15886;49.170;14.572;2022-09-16T15:58:23;3.22;;;1.63;;
28714;SDS011;15886;49.170;14.572;2022-09-16T16:01:12;10.60;;;3.50;;
28714;SDS011;15886;49.170;14.572;2022-09-16T16:04:10;2.85;;;2.20;;
28714;SDS011;15886;49.170;14.572;2022-09-16T16:06:50;6.10;;;2.72;;
28714;SDS011;15886;49.170;14.572;2022-09-16T16:11:59;4.65;;;2.92;;
28714;SDS011;15886;49.170;14.572;2022-09-16T16:14:36;7.20;;;3.83;;
28714;SDS011;15886;49.170;14.572;2022-09-16T16:17:07;4.28;;;2.50;;
28714;SDS011;15886;49.170;14.572;2022-09-16T16:19:40;5.60;;;2.47;;
28714;SDS011;15886;49.170;14.572;2022-09-16T16:22:10;5.85;;;3.45;;
28714;SDS011;15886;49.170;14.572;2022-09-16T16:24:40;8.63;;;5.63;;
28714;SDS011;15886;49.170;14.572;2022-09-16T16:27:09;4.22;;;2.92;;
28714;SDS011;15886;49.170;14.572;2022-09-16T16:29:39;3.88;;;2.67;;
28714;SDS011;15886;49.170;14.572;2022-09-16T16:32:08;3.60;;;2.67;;
28714;SDS011;15886;49.170;14.572;2022-09-16T16:34:42;3.65;;;2.60;;
28714;SDS011;15886;49.170;14.572;2022-09-16T16:37:14;3.42;;;2.58;;
28714;SDS011;15886;49.170;14.572;2022-09-16T16:39:54;7.00;;;2.22;;
28714;SDS011;15886;49.170;14.572;2022-09-16T16:42:22;3.17;;;2.10;;
28714;SDS011;15886;49.170;14.572;2022-09-16T16:44:51;3.95;;;2.90;;
28714;SDS011;15886;49.170;14.572;2022-09-16T16:47:19;8.50;;;2.55;;
28714;SDS011;15886;49.170;14.572;2022-09-16T16:49:47;4.70;;;3.78;;
28714;SDS011;15886;49.170;14.572;2022-09-16T16:52:17;7.18;;;2.65;;
28714;SDS011;15886;49.170;14.572;2022-09-16T16:54:46;8.63;;;2.42;;
28714;SDS011;15886;49.170;14.572;2022-09-16T16:57:15;4.70;;;2.17;;
28714;SDS011;15886;49.170;14.572;2022-09-16T16:59:45;3.47;;;2.28;;
28714;SDS011;15886;49.170;14.572;2022-09-16T17:02:13;3.63;;;2.20;;
